Time;durP1;ratioP1;P1;durP2;ratioP2;P2;SDS_P1;SDS_P2;PMS_P1;PMS_P2;Temp;Humidity;BMP_temperature;BMP_pressure;BME280_temperature;BME280_humidity;BME280_pressure;Samples;Min_cycle;Max_cycle;Signal;HPM_P1;HPM_P2
2022/03/04 00:00:28;;;;;;;1.55;0.70;;;;;;;;;;1689955;29;21572;-49
2022/03/04 00:01:20;;;;;;;1.88;0.50;;;;;;;;;;1689352;29;21489;-50
2022/03/04 00:02:11;;;;;;;1.65;0.77;;;;;;;;;;1690201;29;21626;-50
2022/03/04 00:03:04;;;;;;;1.17;0.60;;;;;;;;;;1690089;29;21516;-49
2022/03/04 00:03:57;;;;;;;3.10;0.80;;;;;;;;;;1690242;29;21555;-49
2022/03/04 00:04:50;;;;;;;0.88;0.43;;;;;;;;;;1689621;29;21515;-51
2022/03/04 00:05:42;;;;;;;3.72;0.88;;;;;;;;;;1689237;29;21527;-49
2022/03/04 00:06:34;;;;;;;3.05;1.42;;;;;;;;;;1690016;29;21503;-49
2022/03/04 00:07:25;;;;;;;8.57;1.10;;;;;;;;;;1689321;29;22081;-49
2022/03/04 00:08:17;;;;;;;1.88;0.98;;;;;;;;;;1690972;29;22060;-49
2022/03/04 00:09:09;;;;;;;0.93;0.60;;;;;;;;;;1691286;29;21609;-51
2022/03/04 00:10:01;;;;;;;8.40;1.20;;;;;;;;;;1691132;29;21670;-50
2022/03/04 00:10:52;;;;;;;1.45;0.73;;;;;;;;;;1690818;29;21617;-51
2022/03/04 00:11:44;;;;;;;2.45;0.88;;;;;;;;;;1691299;29;21515;-50
2022/03/04 00:12:36;;;;;;;7.75;0.88;;;;;;;;;;1691023;29;22067;-49
2022/03/04 00:13:28;;;;;;;3.63;1.02;;;;;;;;;;1691305;29;21526;-50
2022/03/04 00:14:19;;;;;;;4.50;0.90;;;;;;;;;;1690480;29;21539;-50
2022/03/04 00:15:11;;;;;;;7.50;0.73;;;;;;;;;;1686483;29;21550;-50
2022/03/04 00:16:03;;;;;;;1.63;0.85;;;;;;;;;;1690844;29;21584;-50
2022/03/04 00:16:55;;;;;;;2.28;0.80;;;;;;;;;;1684839;29;22252;-49
2022/03/04 00:17:47;;;;;;;0.93;0.63;;;;;;;;;;1690319;29;21616;-51
2022/03/04 00:18:39;;;;;;;5.25;0.75;;;;;;;;;;1691267;29;21983;-50
2022/03/04 00:19:31;;;;;;;2.95;0.80;;;;;;;;;;1691139;29;21550;-49
2022/03/04 00:20:24;;;;;;;1.90;0.90;;;;;;;;;;1690500;29;21551;-49
2022/03/04 00:21:15;;;;;;;1.83;0.70;;;;;;;;;;1691242;29;21636;-50
2022/03/04 00:22:07;;;;;;;0.80;0.75;;;;;;;;;;1690989;29;21563;-50
2022/03/04 00:22:58;;;;;;;1.38;0.57;;;;;;;;;;1690174;29;21510;-50
2022/03/04 00:23:51;;;;;;;4.03;0.73;;;;;;;;;;1691142;29;21979;-48
2022/03/04 00:24:42;;;;;;;2.20;0.57;;;;;;;;;;1691080;29;22123;-49
2022/03/04 00:25:34;;;;;;;6.03;1.10;;;;;;;;;;1690328;29;21653;-50
2022/03/04 00:26:25;;;;;;;0.77;0.55;;;;;;;;;;1690161;29;21603;-49
2022/03/04 00:27:17;;;;;;;1.70;0.60;;;;;;;;;;1691079;29;22035;-50
2022/03/04 00:28:09;;;;;;;1.50;0.90;;;;;;;;;;1690911;29;21977;-51
2022/03/04 00:29:01;;;;;;;5.53;0.82;;;;;;;;;;1690365;29;21796;-51
2022/03/04 00:29:52;;;;;;;1.38;0.80;;;;;;;;;;1691133;29;21573;-49
2022/03/04 00:30:44;;;;;;;4.43;0.80;;;;;;;;;;1691024;29;21530;-51
2022/03/04 00:31:36;;;;;;;3.17;0.63;;;;;;;;;;1690212;29;21553;-51
2022/03/04 00:32:29;;;;;;;0.80;0.70;;;;;;;;;;1690848;29;21558;-51
2022/03/04 00:33:20;;;;;;;1.40;0.88;;;;;;;;;;1690990;29;21575;-49
2022/03/04 00:34:12;;;;;;;0.88;0.63;;;;;;;;;;1691043;29;21583;-50
2022/03/04 00:35:06;;;;;;;0.75;0.55;;;;;;;;;;1690083;29;21892;-50
2022/03/04 00:35:58;;;;;;;1.63;0.75;;;;;;;;;;1689993;29;21570;-50
2022/03/04 00:36:49;;;;;;;1.90;0.60;;;;;;;;;;1690891;29;21531;-49
2022/03/04 00:37:42;;;;;;;2.33;0.70;;;;;;;;;;1690866;29;21622;-49
2022/03/04 00:38:33;;;;;;;4.22;0.75;;;;;;;;;;1690344;29;21546;-49
2022/03/04 00:39:24;;;;;;;0.77;0.60;;;;;;;;;;1690895;29;21733;-49
2022/03/04 00:40:17;;;;;;;1.80;0.63;;;;;;;;;;1690947;29;21584;-50
2022/03/04 00:41:08;;;;;;;1.48;0.80;;;;;;;;;;1690279;29;21551;-49
2022/03/04 00:42:00;;;;;;;1.50;0.73;;;;;;;;;;1690871;29;21884;-53
2022/03/04 00:42:52;;;;;;;2.08;0.65;;;;;;;;;;1690864;29;21565;-50
2022/03/04 00:43:44;;;;;;;3.08;0.70;;;;;;;;;;1691136;29;21559;-50
2022/03/04 00:44:35;;;;;;;3.90;0.80;;;;;;;;;;1690130;29;22102;-49
2022/03/04 00:45:27;;;;;;;7.15;0.77;;;;;;;;;;1690183;29;22075;-49
2022/03/04 00:46:19;;;;;;;1.60;0.50;;;;;;;;;;1689983;29;21626;-49
2022/03/04 00:47:12;;;;;;;5.50;0.80;;;;;;;;;;1690885;29;21667;-50
2022/03/04 00:48:04;;;;;;;5.30;0.80;;;;;;;;;;1690906;29;22052;-49
2022/03/04 00:48:56;;;;;;;2.80;0.70;;;;;;;;;;1690183;29;21772;-49
2022/03/04 00:49:47;;;;;;;9.27;0.85;;;;;;;;;;1691229;29;21568;-51
2022/03/04 00:50:41;;;;;;;4.25;0.98;;;;;;;;;;1690973;29;21602;-49
2022/03/04 00:51:32;;;;;;;1.48;0.77;;;;;;;;;;1690203;29;21857;-49
2022/03/04 00:52:25;;;;;;;2.85;0.95;;;;;;;;;;1690733;29;21871;-50
2022/03/04 00:53:16;;;;;;;4.47;0.75;;;;;;;;;;1691164;29;21566;-49
2022/03/04 00:54:09;;;;;;;1.23;0.60;;;;;;;;;;1690248;29;21566;-50
2022/03/04 00:55:00;;;;;;;0.95;0.70;;;;;;;;;;1689483;29;21642;-49
2022/03/04 00:55:52;;;;;;;0.80;0.70;;;;;;;;;;1690737;29;21628;-49
2022/03/04 00:56:44;;;;;;;2.08;0.80;;;;;;;;;;1690981;29;21617;-49
2022/03/04 00:57:36;;;;;;;2.05;0.70;;;;;;;;;;1690773;29;21604;-49
2022/03/04 00:58:27;;;;;;;0.60;0.60;;;;;;;;;;1691026;29;21618;-49
2022/03/04 00:59:19;;;;;;;1.65;0.60;;;;;;;;;;1690352;29;21913;-50
2022/03/04 01:00:12;;;;;;;1.08;0.70;;;;;;;;;;1690808;29;21498;-49
2022/03/04 01:01:05;;;;;;;2.35;0.57;;;;;;;;;;1691030;29;22045;-49
2022/03/04 01:01:57;;;;;;;3.03;0.68;;;;;;;;;;1690871;29;21557;-49
2022/03/04 01:02:49;;;;;;;1.13;0.80;;;;;;;;;;1690052;29;22411;-52
2022/03/04 01:03:40;;;;;;;0.75;0.75;;;;;;;;;;1690839;29;21564;-50
2022/03/04 01:04:32;;;;;;;5.28;0.70;;;;;;;;;;1690920;29;21656;-50
2022/03/04 01:05:23;;;;;;;2.22;0.68;;;;;;;;;;1689609;29;21679;-53
2022/03/04 01:06:18;;;;;;;1.58;0.70;;;;;;;;;;1690674;29;21557;-50
2022/03/04 01:07:09;;;;;;;1.30;0.65;;;;;;;;;;1690733;29;22034;-49
2022/03/04 01:08:01;;;;;;;0.82;0.60;;;;;;;;;;1684835;29;21564;-50
2022/03/04 01:08:53;;;;;;;0.93;0.70;;;;;;;;;;1690763;29;22111;-49
2022/03/04 01:09:45;;;;;;;1.98;0.70;;;;;;;;;;1691012;29;21558;-49
2022/03/04 01:10:36;;;;;;;0.90;0.65;;;;;;;;;;1690973;29;21929;-51
2022/03/04 01:11:28;;;;;;;3.15;0.70;;;;;;;;;;1691054;29;22045;-49
2022/03/04 01:12:19;;;;;;;1.23;0.68;;;;;;;;;;1691000;29;22071;-49
2022/03/04 01:13:12;;;;;;;0.95;0.57;;;;;;;;;;1690025;29;21552;-51
2022/03/04 01:14:04;;;;;;;1.00;0.60;;;;;;;;;;1690840;29;21603;-49
2022/03/04 01:14:56;;;;;;;1.00;0.60;;;;;;;;;;1690841;29;21885;-50
2022/03/04 01:15:48;;;;;;;1.58;0.70;;;;;;;;;;1690562;29;22043;-49
2022/03/04 01:16:40;;;;;;;0.88;0.68;;;;;;;;;;1690099;29;21549;-50
2022/03/04 01:17:32;;;;;;;0.98;0.60;;;;;;;;;;1687648;29;21507;-49
2022/03/04 01:18:24;;;;;;;1.50;0.70;;;;;;;;;;1690710;29;21668;-49
2022/03/04 01:19:15;;;;;;;1.25;0.77;;;;;;;;;;1690176;29;21644;-49
2022/03/04 01:20:10;;;;;;;1.77;0.60;;;;;;;;;;1690718;29;21663;-49
2022/03/04 01:21:01;;;;;;;1.25;0.40;;;;;;;;;;1691088;29;21576;-49
2022/03/04 01:21:55;;;;;;;0.60;0.60;;;;;;;;;;1690821;29;21619;-50
2022/03/04 01:22:46;;;;;;;3.10;0.85;;;;;;;;;;1689935;29;22270;-49
2022/03/04 01:23:38;;;;;;;3.08;0.70;;;;;;;;;;1690743;29;21597;-51
2022/03/04 01:24:29;;;;;;;2.05;0.80;;;;;;;;;;1690757;29;21548;-49
2022/03/04 01:25:22;;;;;;;0.50;0.45;;;;;;;;;;1689544;29;22301;-50
2022/03/04 01:26:13;;;;;;;2.53;0.80;;;;;;;;;;1690733;29;21973;-52
2022/03/04 01:27:05;;;;;;;0.65;0.55;;;;;;;;;;1690655;29;21501;-49
2022/03/04 01:27:56;;;;;;;1.08;0.60;;;;;;;;;;1690001;29;21607;-50
2022/03/04 01:28:49;;;;;;;0.65;0.50;;;;;;;;;;1690220;29;22102;-50
2022/03/04 01:29:40;;;;;;;2.33;0.55;;;;;;;;;;1684293;29;21595;-49
2022/03/04 01:30:32;;;;;;;1.00;0.50;;;;;;;;;;1690201;29;21513;-50
2022/03/04 01:31:23;;;;;;;1.13;0.65;;;;;;;;;;1690920;29;21572;-49
2022/03/04 01:32:15;;;;;;;0.50;0.47;;;;;;;;;;1689822;29;21916;-49
2022/03/04 01:33:07;;;;;;;4.32;0.68;;;;;;;;;;1690610;29;21612;-49
2022/03/04 01:33:59;;;;;;;1.40;0.70;;;;;;;;;;1690628;29;22082;-49
2022/03/04 01:34:50;;;;;;;2.40;0.75;;;;;;;;;;1690935;29;21566;-49
2022/03/04 01:35:43;;;;;;;5.60;0.80;;;;;;;;;;1689438;29;21918;-49
2022/03/04 01:36:35;;;;;;;1.08;0.60;;;;;;;;;;1690600;29;21556;-49
2022/03/04 01:37:28;;;;;;;3.38;0.50;;;;;;;;;;1684188;29;21553;-49
2022/03/04 01:38:20;;;;;;;1.45;0.90;;;;;;;;;;1690320;29;21589;-49
2022/03/04 01:39:12;;;;;;;1.15;0.60;;;;;;;;;;1690007;29;22184;-50
2022/03/04 01:40:05;;;;;;;4.55;0.60;;;;;;;;;;1690474;29;21752;-49
2022/03/04 01:40:57;;;;;;;2.25;0.70;;;;;;;;;;1690733;29;21615;-49
2022/03/04 01:41:48;;;;;;;2.55;0.70;;;;;;;;;;1690645;29;21559;-50
2022/03/04 01:42:41;;;;;;;2.55;0.70;;;;;;;;;;1689770;29;22019;-50
2022/03/04 01:43:32;;;;;;;1.27;0.57;;;;;;;;;;1690665;29;21608;-49
2022/03/04 01:44:25;;;;;;;0.73;0.50;;;;;;;;;;1690568;29;21492;-49
2022/03/04 01:45:16;;;;;;;1.55;0.80;;;;;;;;;;1689308;29;22254;-50
2022/03/04 01:46:17;;;;;;;1.35;0.90;;;;;;;;;;1690634;29;21625;-49
2022/03/04 01:47:08;;;;;;;1.05;0.68;;;;;;;;;;1690555;29;21523;-49
2022/03/04 01:48:01;;;;;;;4.47;0.60;;;;;;;;;;1689935;29;21735;-49
2022/03/04 01:48:52;;;;;;;1.48;0.63;;;;;;;;;;1690643;29;22018;-50
2022/03/04 01:49:44;;;;;;;3.13;0.60;;;;;;;;;;1690640;29;21655;-50
2022/03/04 01:50:35;;;;;;;1.55;0.75;;;;;;;;;;1690001;29;21685;-49
2022/03/04 01:51:28;;;;;;;1.38;0.60;;;;;;;;;;1690581;29;22103;-50
2022/03/04 01:52:20;;;;;;;2.72;0.50;;;;;;;;;;1690636;29;21903;-50
2022/03/04 01:53:13;;;;;;;5.28;0.80;;;;;;;;;;1686029;29;21791;-49
2022/03/04 01:54:04;;;;;;;1.40;0.70;;;;;;;;;;1690565;29;21588;-50
2022/03/04 01:54:57;;;;;;;1.55;0.50;;;;;;;;;;1690555;29;21610;-50
2022/03/04 01:55:48;;;;;;;4.43;0.70;;;;;;;;;;1689372;29;21671;-49
2022/03/04 01:56:40;;;;;;;2.38;0.68;;;;;;;;;;1690618;29;21689;-50
2022/03/04 01:57:31;;;;;;;1.52;0.60;;;;;;;;;;1690547;29;21556;-50
2022/03/04 01:58:24;;;;;;;1.02;0.50;;;;;;;;;;1689186;29;21630;-49
2022/03/04 01:59:16;;;;;;;1.10;0.47;;;;;;;;;;1683220;29;21619;-49
2022/03/04 02:00:13;;;;;;;1.10;0.52;;;;;;;;;;1683725;29;21533;-49
2022/03/04 02:01:05;;;;;;;3.95;0.50;;;;;;;;;;1688209;29;21547;-49
2022/03/04 02:01:57;;;;;;;3.33;0.70;;;;;;;;;;1689939;29;21572;-49
2022/03/04 02:02:48;;;;;;;3.42;1.08;;;;;;;;;;1690472;29;22039;-50
2022/03/04 02:03:41;;;;;;;5.07;0.80;;;;;;;;;;1690515;29;21677;-49
2022/03/04 02:04:32;;;;;;;1.90;0.63;;;;;;;;;;1690753;29;22151;-49
2022/03/04 02:05:24;;;;;;;2.30;0.65;;;;;;;;;;1689237;29;22262;-49
2022/03/04 02:06:16;;;;;;;4.15;0.60;;;;;;;;;;1690629;29;21619;-49
2022/03/04 02:07:08;;;;;;;4.80;0.75;;;;;;;;;;1690561;29;21632;-50
2022/03/04 02:07:59;;;;;;;1.00;0.68;;;;;;;;;;1690552;29;22083;-49
2022/03/04 02:08:53;;;;;;;4.22;0.63;;;;;;;;;;1689816;29;21495;-49
2022/03/04 02:09:44;;;;;;;3.08;0.60;;;;;;;;;;1689783;29;21622;-50
2022/03/04 02:10:36;;;;;;;0.98;0.60;;;;;;;;;;1690507;29;21508;-50
2022/03/04 02:11:27;;;;;;;1.98;0.73;;;;;;;;;;1690629;29;21536;-49
2022/03/04 02:12:19;;;;;;;4.90;0.80;;;;;;;;;;1690625;29;21537;-50
2022/03/04 02:13:11;;;;;;;1.50;0.80;;;;;;;;;;1689685;29;21553;-51
2022/03/04 02:14:03;;;;;;;2.65;0.60;;;;;;;;;;1690552;29;21556;-50
2022/03/04 02:14:54;;;;;;;4.03;0.50;;;;;;;;;;1690570;29;21599;-49
2022/03/04 02:15:46;;;;;;;1.80;0.65;;;;;;;;;;1689947;29;21551;-50
2022/03/04 02:16:41;;;;;;;1.52;0.75;;;;;;;;;;1690664;29;21545;-49
2022/03/04 02:17:34;;;;;;;3.13;0.90;;;;;;;;;;1689488;29;21581;-50
2022/03/04 02:18:25;;;;;;;2.83;0.70;;;;;;;;;;1690557;29;21548;-49
2022/03/04 02:19:18;;;;;;;4.68;0.70;;;;;;;;;;1690644;29;21531;-49
2022/03/04 02:20:10;;;;;;;4.68;0.80;;;;;;;;;;1689781;29;21559;-49
2022/03/04 02:21:05;;;;;;;6.13;0.57;;;;;;;;;;1690476;29;21679;-49
2022/03/04 02:22:00;;;;;;;3.45;0.80;;;;;;;;;;1690418;29;21617;-49
2022/03/04 02:22:52;;;;;;;6.22;1.38;;;;;;;;;;1689702;29;21566;-49
2022/03/04 02:23:43;;;;;;;8.60;1.30;;;;;;;;;;1686367;29;21614;-49
2022/03/04 02:24:35;;;;;;;7.05;0.75;;;;;;;;;;1690523;29;21872;-50
2022/03/04 02:25:27;;;;;;;2.65;0.77;;;;;;;;;;1689712;29;21580;-49
2022/03/04 02:26:19;;;;;;;5.05;0.82;;;;;;;;;;1685600;29;21492;-49
2022/03/04 02:27:10;;;;;;;5.32;0.70;;;;;;;;;;1690431;29;21568;-49
2022/03/04 02:28:02;;;;;;;3.78;0.70;;;;;;;;;;1690503;29;21554;-49
2022/03/04 02:28:54;;;;;;;1.75;0.75;;;;;;;;;;1690536;29;21525;-49
2022/03/04 02:29:46;;;;;;;1.67;0.75;;;;;;;;;;1690655;29;21490;-49
2022/03/04 02:30:37;;;;;;;4.43;0.98;;;;;;;;;;1689949;29;22119;-49
2022/03/04 02:31:29;;;;;;;2.20;0.70;;;;;;;;;;1689589;29;22058;-50
2022/03/04 02:32:20;;;;;;;3.75;0.70;;;;;;;;;;1690499;29;21968;-50
2022/03/04 02:33:13;;;;;;;4.25;0.57;;;;;;;;;;1690375;29;22162;-49
2022/03/04 02:34:04;;;;;;;3.28;0.70;;;;;;;;;;1689983;29;21619;-49
2022/03/04 02:34:56;;;;;;;4.38;0.57;;;;;;;;;;1689251;29;21791;-50
2022/03/04 02:35:48;;;;;;;7.32;0.82;;;;;;;;;;1689817;29;21634;-49
2022/03/04 02:36:41;;;;;;;5.07;0.88;;;;;;;;;;1690533;29;21955;-51
2022/03/04 02:37:34;;;;;;;1.50;0.50;;;;;;;;;;1689553;29;21601;-49
2022/03/04 02:38:26;;;;;;;1.42;0.60;;;;;;;;;;1690505;29;21672;-49
2022/03/04 02:39:18;;;;;;;1.45;0.82;;;;;;;;;;1690578;29;21616;-50
2022/03/04 02:40:13;;;;;;;3.75;0.60;;;;;;;;;;1682639;29;21979;-49
2022/03/04 02:41:06;;;;;;;5.82;0.60;;;;;;;;;;1683135;29;21716;-49
2022/03/04 02:41:58;;;;;;;4.03;0.90;;;;;;;;;;1688688;29;21534;-49
2022/03/04 02:42:49;;;;;;;0.80;0.50;;;;;;;;;;1689326;29;21551;-49
2022/03/04 02:43:41;;;;;;;4.13;1.05;;;;;;;;;;1690355;29;22105;-49
2022/03/04 02:44:32;;;;;;;1.90;0.60;;;;;;;;;;1690484;29;21624;-50
2022/03/04 02:45:25;;;;;;;4.95;0.68;;;;;;;;;;1689519;29;21511;-49
2022/03/04 02:46:16;;;;;;;3.03;0.68;;;;;;;;;;1690400;29;21562;-51
2022/03/04 02:47:08;;;;;;;5.32;0.68;;;;;;;;;;1689736;29;21841;-50
2022/03/04 02:48:00;;;;;;;1.10;0.50;;;;;;;;;;1690232;29;21865;-51
2022/03/04 02:48:52;;;;;;;5.70;0.82;;;;;;;;;;1690312;29;21926;-49
2022/03/04 02:49:43;;;;;;;0.95;0.52;;;;;;;;;;1690544;29;21547;-50
2022/03/04 02:50:35;;;;;;;3.22;0.60;;;;;;;;;;1689904;29;21644;-49
2022/03/04 02:51:27;;;;;;;6.18;0.60;;;;;;;;;;1690237;29;21560;-49
2022/03/04 02:52:19;;;;;;;1.67;0.45;;;;;;;;;;1690570;29;22040;-49
2022/03/04 02:53:12;;;;;;;1.52;0.63;;;;;;;;;;1690328;29;21519;-50
2022/03/04 02:54:05;;;;;;;2.10;0.63;;;;;;;;;;1689598;29;21540;-49
2022/03/04 02:54:56;;;;;;;5.07;0.75;;;;;;;;;;1690331;29;21567;-49
2022/03/04 02:55:48;;;;;;;0.90;0.70;;;;;;;;;;1689681;29;21562;-49
2022/03/04 02:56:39;;;;;;;0.75;0.60;;;;;;;;;;1689676;29;22338;-49
2022/03/04 02:57:31;;;;;;;1.40;0.60;;;;;;;;;;1690132;29;21545;-49
2022/03/04 02:58:22;;;;;;;0.63;0.60;;;;;;;;;;1690406;29;21522;-49
2022/03/04 02:59:15;;;;;;;0.50;0.40;;;;;;;;;;1689677;29;21944;-49
2022/03/04 03:00:07;;;;;;;0.70;0.65;;;;;;;;;;1688275;29;21533;-49
2022/03/04 03:00:59;;;;;;;1.95;0.70;;;;;;;;;;1690597;29;21525;-49
2022/03/04 03:01:50;;;;;;;2.10;0.70;;;;;;;;;;1690304;29;21562;-49
2022/03/04 03:02:43;;;;;;;7.25;0.80;;;;;;;;;;1690284;29;22114;-51
2022/03/04 03:03:35;;;;;;;2.17;0.73;;;;;;;;;;1690142;29;21527;-51
2022/03/04 03:04:27;;;;;;;0.93;0.57;;;;;;;;;;1690049;29;22147;-49
2022/03/04 03:05:18;;;;;;;1.83;0.60;;;;;;;;;;1689504;29;21653;-49
2022/03/04 03:06:10;;;;;;;2.63;0.75;;;;;;;;;;1690237;29;21595;-49
2022/03/04 03:07:02;;;;;;;1.75;0.77;;;;;;;;;;1690256;29;21574;-50
2022/03/04 03:07:54;;;;;;;0.77;0.50;;;;;;;;;;1689682;29;21493;-50
2022/03/04 03:08:46;;;;;;;4.03;0.80;;;;;;;;;;1690191;29;21602;-49
2022/03/04 03:09:38;;;;;;;5.40;0.57;;;;;;;;;;1690224;29;21575;-49
2022/03/04 03:10:31;;;;;;;4.10;0.55;;;;;;;;;;1689643;29;21540;-50
2022/03/04 03:11:23;;;;;;;1.60;0.85;;;;;;;;;;1690232;29;21566;-49
2022/03/04 03:12:15;;;;;;;5.38;1.13;;;;;;;;;;1690217;29;21578;-49
2022/03/04 03:13:07;;;;;;;0.82;0.30;;;;;;;;;;1689565;29;21593;-49
2022/03/04 03:13:58;;;;;;;1.50;0.50;;;;;;;;;;1690105;29;21571;-49
2022/03/04 03:14:51;;;;;;;1.85;0.88;;;;;;;;;;1690344;29;21970;-50
2022/03/04 03:15:42;;;;;;;4.50;0.50;;;;;;;;;;1688834;29;21525;-52
2022/03/04 03:16:34;;;;;;;2.63;0.88;;;;;;;;;;1689736;29;21888;-49
2022/03/04 03:17:25;;;;;;;1.63;0.70;;;;;;;;;;1690025;29;21551;-49
2022/03/04 03:18:18;;;;;;;4.32;0.57;;;;;;;;;;1690277;29;21906;-50
2022/03/04 03:19:09;;;;;;;1.38;0.57;;;;;;;;;;1690326;29;21609;-49
2022/03/04 03:20:02;;;;;;;8.40;0.73;;;;;;;;;;1689492;29;21608;-49
2022/03/04 03:20:54;;;;;;;1.73;0.70;;;;;;;;;;1690174;29;21529;-49
2022/03/04 03:21:46;;;;;;;3.75;0.70;;;;;;;;;;1690246;29;21566;-50
2022/03/04 03:22:37;;;;;;;0.98;0.60;;;;;;;;;;1689492;29;21578;-50
2022/03/04 03:23:30;;;;;;;4.55;0.65;;;;;;;;;;1690089;29;21615;-51
2022/03/04 03:24:22;;;;;;;2.60;0.50;;;;;;;;;;1690299;29;21597;-49
2022/03/04 03:25:14;;;;;;;1.42;0.52;;;;;;;;;;1688940;29;21629;-49
2022/03/04 03:26:05;;;;;;;1.27;0.60;;;;;;;;;;1690073;29;21574;-49
2022/03/04 03:26:58;;;;;;;5.28;0.68;;;;;;;;;;1690210;29;22077;-52
2022/03/04 03:27:49;;;;;;;0.80;0.50;;;;;;;;;;1690044;29;21551;-51
2022/03/04 03:28:41;;;;;;;1.08;0.68;;;;;;;;;;1689483;29;21511;-50
2022/03/04 03:29:32;;;;;;;4.60;0.88;;;;;;;;;;1688149;29;21549;-49
2022/03/04 03:30:24;;;;;;;1.52;0.50;;;;;;;;;;1690345;29;22185;-49
2022/03/04 03:31:15;;;;;;;5.60;0.73;;;;;;;;;;1689576;29;21570;-49
2022/03/04 03:32:10;;;;;;;3.63;0.80;;;;;;;;;;1689412;29;21563;-49
2022/03/04 03:33:01;;;;;;;1.77;0.65;;;;;;;;;;1690300;29;22075;-49
2022/03/04 03:33:53;;;;;;;1.23;0.50;;;;;;;;;;1690256;29;21651;-49
2022/03/04 03:34:45;;;;;;;0.75;0.60;;;;;;;;;;1689695;29;21497;-49
2022/03/04 03:35:37;;;;;;;1.65;0.70;;;;;;;;;;1689232;29;22077;-49
2022/03/04 03:36:28;;;;;;;0.50;0.50;;;;;;;;;;1690300;29;21609;-49
2022/03/04 03:37:20;;;;;;;4.68;0.77;;;;;;;;;;1690121;29;21489;-49
2022/03/04 03:38:11;;;;;;;5.78;0.68;;;;;;;;;;1690170;29;21566;-49
2022/03/04 03:39:04;;;;;;;1.58;1.00;;;;;;;;;;1689435;29;21587;-50
2022/03/04 03:39:56;;;;;;;2.15;0.60;;;;;;;;;;1690119;29;21505;-49
2022/03/04 03:40:48;;;;;;;2.53;0.70;;;;;;;;;;1690285;29;21654;-49
2022/03/04 03:41:40;;;;;;;1.17;0.70;;;;;;;;;;1689352;29;22228;-50
2022/03/04 03:42:32;;;;;;;1.77;0.70;;;;;;;;;;1689955;29;21679;-50
2022/03/04 03:43:23;;;;;;;1.08;0.60;;;;;;;;;;1691264;29;21585;-49
2022/03/04 03:44:15;;;;;;;1.25;0.65;;;;;;;;;;1691654;29;22001;-49
2022/03/04 03:45:08;;;;;;;2.80;0.70;;;;;;;;;;1690722;29;21632;-49
2022/03/04 03:46:01;;;;;;;1.83;0.50;;;;;;;;;;1690380;29;21638;-50
2022/03/04 03:46:52;;;;;;;1.92;0.60;;;;;;;;;;1691076;29;21583;-52
2022/03/04 03:47:44;;;;;;;3.00;0.77;;;;;;;;;;1691241;29;21639;-49
2022/03/04 03:48:39;;;;;;;2.85;0.65;;;;;;;;;;1691284;29;21586;-49
2022/03/04 03:49:31;;;;;;;2.22;0.70;;;;;;;;;;1690967;29;21495;-50
2022/03/04 03:50:22;;;;;;;8.77;0.50;;;;;;;;;;1691299;29;21591;-49
2022/03/04 03:51:15;;;;;;;19.25;1.08;;;;;;;;;;1691284;29;21534;-49
2022/03/04 03:52:07;;;;;;;3.05;0.70;;;;;;;;;;1683147;29;21516;-49
2022/03/04 03:52:59;;;;;;;4.13;0.68;;;;;;;;;;1684168;29;21627;-49
2022/03/04 03:53:50;;;;;;;3.67;0.50;;;;;;;;;;1688827;29;21529;-49
2022/03/04 03:54:42;;;;;;;8.65;0.90;;;;;;;;;;1690653;29;21575;-50
2022/03/04 03:55:35;;;;;;;12.65;0.73;;;;;;;;;;1689594;29;21600;-49
2022/03/04 03:56:27;;;;;;;4.03;0.90;;;;;;;;;;1691288;29;21499;-49
2022/03/04 03:57:18;;;;;;;8.57;1.02;;;;;;;;;;1690538;29;21596;-49
2022/03/04 03:58:10;;;;;;;7.72;1.08;;;;;;;;;;1690356;29;21633;-49
2022/03/04 03:59:02;;;;;;;4.95;1.02;;;;;;;;;;1691373;29;21624;-51
2022/03/04 03:59:54;;;;;;;5.70;1.08;;;;;;;;;;1691175;29;21645;-49
2022/03/04 04:00:45;;;;;;;17.88;1.10;;;;;;;;;;1690442;29;21532;-50
2022/03/04 04:01:38;;;;;;;11.25;1.40;;;;;;;;;;1691293;29;22028;-49
2022/03/04 04:02:29;;;;;;;13.00;1.10;;;;;;;;;;1690960;29;21555;-49
2022/03/04 04:03:22;;;;;;;2.00;0.50;;;;;;;;;;1691423;29;21513;-49
2022/03/04 04:04:13;;;;;;;15.48;1.13;;;;;;;;;;1691353;29;21526;-49
2022/03/04 04:05:07;;;;;;;8.20;0.88;;;;;;;;;;1689911;29;21655;-49
2022/03/04 04:05:58;;;;;;;9.02;0.88;;;;;;;;;;1691157;29;22126;-49
2022/03/04 04:06:50;;;;;;;1.80;0.68;;;;;;;;;;1691348;29;21507;-49
2022/03/04 04:07:41;;;;;;;5.57;0.88;;;;;;;;;;1691043;29;22191;-50
2022/03/04 04:08:34;;;;;;;12.65;0.90;;;;;;;;;;1691221;29;21624;-49
2022/03/04 04:09:25;;;;;;;4.13;0.85;;;;;;;;;;1690690;29;21520;-50
2022/03/04 04:10:17;;;;;;;12.38;1.25;;;;;;;;;;1691010;29;22224;-49
2022/03/04 04:11:10;;;;;;;5.40;0.70;;;;;;;;;;1691165;29;21687;-49
2022/03/04 04:12:02;;;;;;;4.13;0.90;;;;;;;;;;1691120;29;21524;-49
2022/03/04 04:12:53;;;;;;;5.38;0.75;;;;;;;;;;1691102;29;21553;-49
2022/03/04 04:13:45;;;;;;;4.18;0.73;;;;;;;;;;1690543;29;21554;-49
2022/03/04 04:14:37;;;;;;;6.97;0.65;;;;;;;;;;1691251;29;21547;-49
2022/03/04 04:15:29;;;;;;;7.25;0.88;;;;;;;;;;1690479;29;21585;-49
2022/03/04 04:16:20;;;;;;;8.73;0.80;;;;;;;;;;1690395;29;21560;-50
2022/03/04 04:17:12;;;;;;;4.15;1.13;;;;;;;;;;1691075;29;21521;-50
2022/03/04 04:18:03;;;;;;;3.38;1.40;;;;;;;;;;1691043;29;21535;-50
2022/03/04 04:18:56;;;;;;;14.13;1.15;;;;;;;;;;1690457;29;21674;-50
2022/03/04 04:19:47;;;;;;;8.25;1.30;;;;;;;;;;1691095;29;21586;-49
2022/03/04 04:20:40;;;;;;;2.38;0.90;;;;;;;;;;1691154;29;22065;-51
2022/03/04 04:21:31;;;;;;;9.10;0.80;;;;;;;;;;1690467;29;21985;-49
2022/03/04 04:22:23;;;;;;;4.38;0.75;;;;;;;;;;1690619;29;21556;-50
2022/03/04 04:23:14;;;;;;;10.20;1.10;;;;;;;;;;1691187;29;21574;-49
2022/03/04 04:24:07;;;;;;;5.15;1.15;;;;;;;;;;1690373;29;21536;-49
2022/03/04 04:24:58;;;;;;;7.15;0.90;;;;;;;;;;1690255;29;21548;-49
2022/03/04 04:25:51;;;;;;;4.38;0.70;;;;;;;;;;1690509;29;21564;-49
2022/03/04 04:26:43;;;;;;;4.35;0.70;;;;;;;;;;1691187;29;21511;-50
2022/03/04 04:27:36;;;;;;;4.18;0.73;;;;;;;;;;1690062;29;21767;-49
2022/03/04 04:28:27;;;;;;;8.77;0.90;;;;;;;;;;1690982;29;22082;-49
2022/03/04 04:29:19;;;;;;;8.73;0.90;;;;;;;;;;1691070;29;21545;-50
2022/03/04 04:30:11;;;;;;;4.57;0.98;;;;;;;;;;1690231;29;21603;-50
2022/03/04 04:31:04;;;;;;;15.23;1.33;;;;;;;;;;1691011;29;22015;-51
2022/03/04 04:31:55;;;;;;;2.28;0.70;;;;;;;;;;1691142;29;21598;-50
2022/03/04 04:32:47;;;;;;;4.53;0.75;;;;;;;;;;1690939;29;22131;-49
2022/03/04 04:33:38;;;;;;;7.72;0.98;;;;;;;;;;1690176;29;21552;-50
2022/03/04 04:34:30;;;;;;;3.75;0.90;;;;;;;;;;1683976;29;21568;-49
2022/03/04 04:35:22;;;;;;;9.00;1.02;;;;;;;;;;1683113;29;21585;-50
2022/03/04 04:36:14;;;;;;;4.07;0.70;;;;;;;;;;1673317;29;21546;-49
2022/03/04 04:37:06;;;;;;;7.13;0.60;;;;;;;;;;1669249;29;21951;-49
2022/03/04 04:37:58;;;;;;;3.35;0.85;;;;;;;;;;1679250;29;21945;-51
2022/03/04 04:38:49;;;;;;;4.43;1.10;;;;;;;;;;1687625;29;21559;-49
2022/03/04 04:39:42;;;;;;;5.38;0.82;;;;;;;;;;1691142;29;21661;-49
2022/03/04 04:40:33;;;;;;;2.72;0.75;;;;;;;;;;1690879;29;21538;-50
2022/03/04 04:41:25;;;;;;;13.65;0.82;;;;;;;;;;1690380;29;21548;-49
2022/03/04 04:42:18;;;;;;;7.25;1.08;;;;;;;;;;1690801;29;21628;-49
2022/03/04 04:43:10;;;;;;;5.38;0.82;;;;;;;;;;1690810;29;22139;-49
2022/03/04 04:44:01;;;;;;;5.45;0.80;;;;;;;;;;1690308;29;22023;-50
2022/03/04 04:45:43;;;;;;;2.38;0.82;;;;;;;;;;1690779;29;21662;-50
2022/03/04 04:46:34;;;;;;;4.28;0.70;;;;;;;;;;1688407;29;21520;-49
2022/03/04 04:47:26;;;;;;;1.90;0.70;;;;;;;;;;1690531;29;21530;-50
2022/03/04 04:48:17;;;;;;;3.05;0.60;;;;;;;;;;1691058;29;22111;-49
2022/03/04 04:49:09;;;;;;;2.38;0.70;;;;;;;;;;1690972;29;22254;-50
2022/03/04 04:50:44;;;;;;;5.13;0.95;;;;;;;;;;1690498;29;22009;-49
2022/03/04 04:51:35;;;;;;;3.95;0.57;;;;;;;;;;1689358;29;22478;-50
2022/03/04 04:52:28;;;;;;;5.60;1.00;;;;;;;;;;1689660;29;21508;-50
2022/03/04 04:53:19;;;;;;;4.50;0.77;;;;;;;;;;1690604;29;21599;-49
2022/03/04 04:54:45;;;;;;;6.90;0.90;;;;;;;;;;1690138;29;21528;-49
2022/03/04 04:55:36;;;;;;;8.43;0.93;;;;;;;;;;1681609;29;21632;-50
2022/03/04 04:56:28;;;;;;;12.10;1.20;;;;;;;;;;1683157;29;21669;-50
2022/03/04 04:57:30;;;;;;;4.90;0.60;;;;;;;;;;1688388;29;21698;-49
2022/03/04 04:58:23;;;;;;;3.35;0.93;;;;;;;;;;1684908;29;22180;-49
2022/03/04 04:59:49;;;;;;;2.20;0.82;;;;;;;;;;1691024;29;21561;-49
2022/03/04 05:00:41;;;;;;;3.55;0.70;;;;;;;;;;1688867;29;21779;-50
2022/03/04 05:01:33;;;;;;;4.00;1.00;;;;;;;;;;1690005;29;21608;-50
2022/03/04 05:02:25;;;;;;;3.17;0.82;;;;;;;;;;1689133;29;21529;-49
2022/03/04 05:03:32;;;;;;;9.63;0.95;;;;;;;;;;1689350;29;21660;-50
2022/03/04 05:04:23;;;;;;;5.22;0.95;;;;;;;;;;1688846;29;22174;-49
2022/03/04 05:05:15;;;;;;;3.72;0.88;;;;;;;;;;1689398;29;21782;-49
2022/03/04 05:06:07;;;;;;;5.43;1.10;;;;;;;;;;1690112;29;22148;-50
2022/03/04 05:06:59;;;;;;;5.85;1.20;;;;;;;;;;1690677;29;21551;-49
2022/03/04 05:07:50;;;;;;;1.67;0.82;;;;;;;;;;1690839;29;21533;-49
2022/03/04 05:08:43;;;;;;;3.97;1.58;;;;;;;;;;1690410;29;21570;-49
2022/03/04 05:09:34;;;;;;;6.85;1.08;;;;;;;;;;1690443;29;21627;-49
2022/03/04 05:10:26;;;;;;;1.85;0.77;;;;;;;;;;1690892;29;21484;-50
2022/03/04 05:11:17;;;;;;;2.67;1.05;;;;;;;;;;1690891;29;21513;-49
2022/03/04 05:12:10;;;;;;;3.40;1.00;;;;;;;;;;1690138;29;21682;-49
2022/03/04 05:13:03;;;;;;;2.97;0.80;;;;;;;;;;1689563;29;21522;-49
2022/03/04 05:13:55;;;;;;;6.47;0.90;;;;;;;;;;1690813;29;22052;-49
2022/03/04 05:14:46;;;;;;;3.33;0.95;;;;;;;;;;1690820;29;21618;-50